Jackson, MS

1:22 PM CDT on August 30, 2014 (GMT -0500)
Brinkly | Change Station
CLOSE
Current Station
Personal Weather Station
Location: Jackson, MS
Elevation: 344 ft
Nearby Weather Stations
Active Advisory: Special Statement

Elev 344 ft 32.35 °N, 90.20 °W | Updated 4 minutes ago

Mostly Cloudy
Mostly Cloudy
84.4 °F
Feels Like 103 °F
N
3.2
Wind Variable Wind from South

Today
High -- | Low -- °F
--% Chance of Precip.
Yesterday
High -- | Low -- °F
Precip. -- in
6:34 AM 7:27 PM
Waxing Crescent, 23% visible
Pressure 30.01 in
Visibility 10.0 miles
Clouds Mostly Cloudy 10000 ft
Heat Index 103 °F
Dew Point 84 °F
Humidity 98%
Rainfall 0.00 in
Snow Depth Not available.
UV 6 out of 12
Pollen 5.60 out of 12
Air Quality Not available.
Flu Activity Not available.
METAR KHKS 301753Z 16006KT 10SM BKN100 29/23 A3003 RMK AO2 LTG DSNT S SLP160 T02890233 10289 20244 58008

More Conditions Fewer Conditions

Pressure 30.01 in
Visibility 10.0 miles
Clouds Mostly Cloudy 10000 ft
Heat Index 103 °F
Dew Point 84 °F
Humidity 98%
Rainfall 0.00 in
Snow Depth Not available.
UV 6 out of 12
Pollen 5.60 out of 12
Air Quality Not available.
Flu Activity Not available.
METAR KHKS 301753Z 16006KT 10SM BKN100 29/23 A3003 RMK AO2 LTG DSNT S SLP160 T02890233 10289 20244 58008

More Conditions Fewer Conditions

10-Day Weather Forecast

Almanac

Astronomy

Aug. 30, 2014 Rise Set
Actual Time 6:34 AM CDT 7:27 PM CDT
Civil Twilight 6:09 AM CDT 7:52 PM CDT
Nautical Twilight 5:39 AM CDT 8:22 PM CDT
Astronomical Twilight 5:09 AM CDT 8:52 PM CDT
Moon 11:03 AM CDT 10:21 PM CDT
Length of Visible Light 13h 43m
Length of Day
12h 52m
Tomorrow will be 1m 53s shorter.
Waxing Crescent, 23% of the Moon is Illuminated
Today
Waxing Crescent
Sep 2
First Quarter
Sep 8
Full
Sep 15
Last Quarter
Sep 24
New

Today's Extremes

State Highs State Lows

Community

WunderPhotos

Upload Photos

1,748,583 photos uploaded!

WunderBlogs® & News

Nearby

Snow Depth

Station Depth Elevation
No new snow has been reported.

Earthquake Activity

City Distance Mag. Time & Date
No recent earthquake activity has been reported nearby.
Minimum magnitude displayed is 2.5.

Coastal Water Temperatures

Place Temperature
No Stations Reporting

Nearby Weather Stations